Current | Forecast
Updated: 7:00 AM CET on December 12, 2017
Observed at Budapest Ferihegy, Hungary
Temperature 11°C
Humidity 71%
Dew Point 6°C
Wind South at 17 km/h
Pressure 1005 hPa (Rising)
Conditions Clear
Visibility -
UV N/A
Clouds
Yesterday's Maximum 13°C
Yesterday's Minimum 3°C approx.
Yesterday's Heating Degree Days 19 approx.
Sunrise7:22 AM CET
Sunset3:52 PM CET
Moon Rise1:05 AM CET
Moon Set1:14 PM CET
Moon PhaseMoon Phase
Waning Crescent
Raw METARMETAR LHBP 120600Z 17009KT CAVOK 11/06 Q1005 NOSIG


Monday
. High: 62° F.
Tuesday
. High: 77° F.
Wednesday
. High: 80° F.
Thursday
. High: 77° F.
Friday
. High: 66° F.
Saturday
. High: 69° F.
Sunday
. High: 71° F.
Monday
. High: 69° F.

Units: English | Metric

Find the Weather for any City, State or Zipcode, or Country:

U.S. State List | Severe Weather | Tropical Storms | Ski Conditions
United States | Canada | Central America | South America | Asia | Europe | Australia | Africa | Islands

Weather Underground

© Copyright 2017
The Weather Company, LLC